sensor_id;sensor_type;location;lat;lon;timestamp;temperature;humidity
16995;DHT22;8614;48.522;9.206;2022-10-28T00:01:52;12.10;99.90
16995;DHT22;8614;48.522;9.206;2022-10-28T00:04:18;12.10;99.90
16995;DHT22;8614;48.522;9.206;2022-10-28T00:06:45;12.10;99.90
16995;DHT22;8614;48.522;9.206;2022-10-28T00:09:12;12.10;99.90
16995;DHT22;8614;48.522;9.206;2022-10-28T00:11:39;12.10;99.90
16995;DHT22;8614;48.522;9.206;2022-10-28T00:14:06;12.10;99.90
16995;DHT22;8614;48.522;9.206;2022-10-28T00:16:35;12.10;99.90
16995;DHT22;8614;48.522;9.206;2022-10-28T00:19:04;12.10;99.90
16995;DHT22;8614;48.522;9.206;2022-10-28T00:21:34;12.10;99.90
16995;DHT22;8614;48.522;9.206;2022-10-28T00:24:01;12.20;99.90
16995;DHT22;8614;48.522;9.206;2022-10-28T00:26:29;12.20;99.90
16995;DHT22;8614;48.522;9.206;2022-10-28T00:28:58;12.10;99.90
16995;DHT22;8614;48.522;9.206;2022-10-28T00:31:27;12.20;99.90
16995;DHT22;8614;48.522;9.206;2022-10-28T00:33:57;12.20;99.90
16995;DHT22;8614;48.522;9.206;2022-10-28T00:36:26;12.20;99.90
16995;DHT22;8614;48.522;9.206;2022-10-28T00:38:54;12.20;99.90
16995;DHT22;8614;48.522;9.206;2022-10-28T00:41:25;12.10;99.90
16995;DHT22;8614;48.522;9.206;2022-10-28T00:43:53;12.10;99.90
16995;DHT22;8614;48.522;9.206;2022-10-28T00:46:25;12.00;99.90
16995;DHT22;8614;48.522;9.206;2022-10-28T00:48:59;11.90;99.90
16995;DHT22;8614;48.522;9.206;2022-10-28T00:51:28;11.90;99.90
16995;DHT22;8614;48.522;9.206;2022-10-28T00:53:57;11.80;99.90
16995;DHT22;8614;48.522;9.206;2022-10-28T00:56:26;11.80;99.90
16995;DHT22;8614;48.522;9.206;2022-10-28T00:58:55;11.80;99.90
16995;DHT22;8614;48.522;9.206;2022-10-28T01:01:23;11.80;99.90
16995;DHT22;8614;48.522;9.206;2022-10-28T01:03:50;11.80;99.90
16995;DHT22;8614;48.522;9.206;2022-10-28T01:06:19;11.70;99.90
16995;DHT22;8614;48.522;9.206;2022-10-28T01:08:46;11.70;99.90
16995;DHT22;8614;48.522;9.206;2022-10-28T01:11:48;11.60;99.90
16995;DHT22;8614;48.522;9.206;2022-10-28T01:14:26;11.70;99.90
16995;DHT22;8614;48.522;9.206;2022-10-28T01:17:22;11.60;99.90
16995;DHT22;8614;48.522;9.206;2022-10-28T01:22:59;11.50;99.90
16995;DHT22;8614;48.522;9.206;2022-10-28T01:28:39;11.50;99.90
16995;DHT22;8614;48.522;9.206;2022-10-28T01:31:22;11.40;99.90
16995;DHT22;8614;48.522;9.206;2022-10-28T01:33:54;11.40;99.90
16995;DHT22;8614;48.522;9.206;2022-10-28T01:36:32;11.40;99.90
16995;DHT22;8614;48.522;9.206;2022-10-28T01:39:11;11.40;99.90
16995;DHT22;8614;48.522;9.206;2022-10-28T01:41:47;11.40;99.90
16995;DHT22;8614;48.522;9.206;2022-10-28T01:44:20;11.30;99.90
16995;DHT22;8614;48.522;9.206;2022-10-28T01:46:56;11.30;99.90
16995;DHT22;8614;48.522;9.206;2022-10-28T01:49:30;11.30;99.90
16995;DHT22;8614;48.522;9.206;2022-10-28T01:52:06;11.30;99.90
16995;DHT22;8614;48.522;9.206;2022-10-28T01:54:35;11.30;99.90
16995;DHT22;8614;48.522;9.206;2022-10-28T01:57:04;11.30;99.90
16995;DHT22;8614;48.522;9.206;2022-10-28T01:59:33;11.30;99.90
16995;DHT22;8614;48.522;9.206;2022-10-28T02:02:01;11.20;99.90
16995;DHT22;8614;48.522;9.206;2022-10-28T02:04:28;11.20;99.90
16995;DHT22;8614;48.522;9.206;2022-10-28T02:06:56;11.10;99.90
16995;DHT22;8614;48.522;9.206;2022-10-28T02:09:33;11.10;99.90
16995;DHT22;8614;48.522;9.206;2022-10-28T02:12:23;11.00;99.90
16995;DHT22;8614;48.522;9.206;2022-10-28T02:15:06;11.00;99.90
16995;DHT22;8614;48.522;9.206;2022-10-28T02:17:49;11.00;99.90
16995;DHT22;8614;48.522;9.206;2022-10-28T02:20:23;11.00;99.90
16995;DHT22;8614;48.522;9.206;2022-10-28T02:22:56;10.90;99.90
16995;DHT22;8614;48.522;9.206;2022-10-28T02:25:30;10.90;99.90
16995;DHT22;8614;48.522;9.206;2022-10-28T02:28:03;10.90;99.90
16995;DHT22;8614;48.522;9.206;2022-10-28T02:30:33;10.90;99.90
16995;DHT22;8614;48.522;9.206;2022-10-28T02:33:06;10.80;99.90
16995;DHT22;8614;48.522;9.206;2022-10-28T02:35:37;10.80;99.90
16995;DHT22;8614;48.522;9.206;2022-10-28T02:38:08;10.70;99.90
16995;DHT22;8614;48.522;9.206;2022-10-28T02:40:38;10.80;99.90
16995;DHT22;8614;48.522;9.206;2022-10-28T02:43:07;10.70;99.90
16995;DHT22;8614;48.522;9.206;2022-10-28T02:45:38;10.70;99.90
16995;DHT22;8614;48.522;9.206;2022-10-28T02:48:08;10.70;99.90
16995;DHT22;8614;48.522;9.206;2022-10-28T02:50:39;10.60;99.90
16995;DHT22;8614;48.522;9.206;2022-10-28T02:53:11;10.60;99.90
16995;DHT22;8614;48.522;9.206;2022-10-28T02:55:41;10.60;99.90
16995;DHT22;8614;48.522;9.206;2022-10-28T02:58:10;10.50;99.90
16995;DHT22;8614;48.522;9.206;2022-10-28T03:00:37;10.50;99.90
16995;DHT22;8614;48.522;9.206;2022-10-28T03:03:10;10.50;99.90
16995;DHT22;8614;48.522;9.206;2022-10-28T03:05:37;10.50;99.90
16995;DHT22;8614;48.522;9.206;2022-10-28T03:08:04;10.50;99.90
16995;DHT22;8614;48.522;9.206;2022-10-28T03:10:31;10.60;99.90
16995;DHT22;8614;48.522;9.206;2022-10-28T03:12:58;10.60;99.90
16995;DHT22;8614;48.522;9.206;2022-10-28T03:15:25;10.60;99.90
16995;DHT22;8614;48.522;9.206;2022-10-28T03:17:51;10.60;99.90
16995;DHT22;8614;48.522;9.206;2022-10-28T03:20:20;10.60;99.90
16995;DHT22;8614;48.522;9.206;2022-10-28T03:22:46;10.60;99.90
16995;DHT22;8614;48.522;9.206;2022-10-28T03:25:13;10.50;99.90
16995;DHT22;8614;48.522;9.206;2022-10-28T03:27:40;10.60;99.90
16995;DHT22;8614;48.522;9.206;2022-10-28T03:30:08;10.60;99.90
16995;DHT22;8614;48.522;9.206;2022-10-28T03:32:35;10.60;99.90
16995;DHT22;8614;48.522;9.206;2022-10-28T03:35:02;10.60;99.90
16995;DHT22;8614;48.522;9.206;2022-10-28T03:37:30;10.60;99.90
16995;DHT22;8614;48.522;9.206;2022-10-28T03:39:57;10.70;99.90
16995;DHT22;8614;48.522;9.206;2022-10-28T03:42:26;10.80;99.90
16995;DHT22;8614;48.522;9.206;2022-10-28T03:44:53;10.80;99.90
16995;DHT22;8614;48.522;9.206;2022-10-28T03:47:20;11.00;99.90
16995;DHT22;8614;48.522;9.206;2022-10-28T03:49:47;11.00;99.90
16995;DHT22;8614;48.522;9.206;2022-10-28T03:52:14;11.00;99.90
16995;DHT22;8614;48.522;9.206;2022-10-28T03:54:42;11.10;99.90
16995;DHT22;8614;48.522;9.206;2022-10-28T03:57:09;11.20;99.90
16995;DHT22;8614;48.522;9.206;2022-10-28T03:59:36;11.20;99.90
16995;DHT22;8614;48.522;9.206;2022-10-28T04:02:03;11.20;99.90
16995;DHT22;8614;48.522;9.206;2022-10-28T04:04:29;11.30;99.90
16995;DHT22;8614;48.522;9.206;2022-10-28T04:06:56;11.30;99.90
16995;DHT22;8614;48.522;9.206;2022-10-28T04:09:23;11.40;99.90
16995;DHT22;8614;48.522;9.206;2022-10-28T04:11:51;11.50;99.90
16995;DHT22;8614;48.522;9.206;2022-10-28T04:14:18;11.50;99.90
16995;DHT22;8614;48.522;9.206;2022-10-28T04:16:45;11.50;99.90
16995;DHT22;8614;48.522;9.206;2022-10-28T04:19:12;11.50;99.90
16995;DHT22;8614;48.522;9.206;2022-10-28T04:21:39;11.60;99.90
16995;DHT22;8614;48.522;9.206;2022-10-28T04:24:06;11.60;99.90
16995;DHT22;8614;48.522;9.206;2022-10-28T04:26:33;11.70;99.90
16995;DHT22;8614;48.522;9.206;2022-10-28T04:29:01;11.70;99.90
16995;DHT22;8614;48.522;9.206;2022-10-28T04:31:28;11.70;99.90
16995;DHT22;8614;48.522;9.206;2022-10-28T04:33:54;11.80;99.90
16995;DHT22;8614;48.522;9.206;2022-10-28T04:36:21;11.80;99.90
16995;DHT22;8614;48.522;9.206;2022-10-28T04:38:48;11.80;99.90
16995;DHT22;8614;48.522;9.206;2022-10-28T04:41:16;11.90;99.90
16995;DHT22;8614;48.522;9.206;2022-10-28T04:43:43;11.90;99.90
16995;DHT22;8614;48.522;9.206;2022-10-28T04:46:11;11.90;99.90
16995;DHT22;8614;48.522;9.206;2022-10-28T04:48:38;11.90;99.90
16995;DHT22;8614;48.522;9.206;2022-10-28T04:51:05;11.90;99.90
16995;DHT22;8614;48.522;9.206;2022-10-28T04:53:32;12.00;99.90
16995;DHT22;8614;48.522;9.206;2022-10-28T04:55:59;12.00;99.90
16995;DHT22;8614;48.522;9.206;2022-10-28T04:58:26;12.00;99.90
16995;DHT22;8614;48.522;9.206;2022-10-28T05:00:52;12.00;99.90
16995;DHT22;8614;48.522;9.206;2022-10-28T05:03:21;11.90;99.90
16995;DHT22;8614;48.522;9.206;2022-10-28T05:05:48;11.90;99.90
16995;DHT22;8614;48.522;9.206;2022-10-28T05:08:14;11.90;99.90
16995;DHT22;8614;48.522;9.206;2022-10-28T05:10:41;11.90;99.90
16995;DHT22;8614;48.522;9.206;2022-10-28T05:13:09;11.90;99.90
16995;DHT22;8614;48.522;9.206;2022-10-28T05:15:36;11.90;99.90
16995;DHT22;8614;48.522;9.206;2022-10-28T05:18:03;11.90;99.90
16995;DHT22;8614;48.522;9.206;2022-10-28T05:20:31;11.80;99.90
16995;DHT22;8614;48.522;9.206;2022-10-28T05:22:58;11.80;99.90
16995;DHT22;8614;48.522;9.206;2022-10-28T05:25:25;11.80;99.90
16995;DHT22;8614;48.522;9.206;2022-10-28T05:27:52;11.80;99.90
16995;DHT22;8614;48.522;9.206;2022-10-28T05:30:19;11.70;99.90
16995;DHT22;8614;48.522;9.206;2022-10-28T05:32:46;11.70;99.90
16995;DHT22;8614;48.522;9.206;2022-10-28T05:35:12;11.70;99.90
16995;DHT22;8614;48.522;9.206;2022-10-28T05:37:42;11.70;99.90
16995;DHT22;8614;48.522;9.206;2022-10-28T05:40:10;11.70;99.90
16995;DHT22;8614;48.522;9.206;2022-10-28T05:42:39;11.80;99.90
16995;DHT22;8614;48.522;9.206;2022-10-28T05:45:07;11.80;99.90
16995;DHT22;8614;48.522;9.206;2022-10-28T05:47:34;11.90;99.90
16995;DHT22;8614;48.522;9.206;2022-10-28T05:50:01;11.90;99.90
16995;DHT22;8614;48.522;9.206;2022-10-28T05:52:28;11.90;99.90
16995;DHT22;8614;48.522;9.206;2022-10-28T05:54:56;12.00;99.90
16995;DHT22;8614;48.522;9.206;2022-10-28T05:57:23;12.00;99.90
16995;DHT22;8614;48.522;9.206;2022-10-28T05:59:50;12.00;99.90
16995;DHT22;8614;48.522;9.206;2022-10-28T06:02:17;12.00;99.90
16995;DHT22;8614;48.522;9.206;2022-10-28T06:04:44;12.10;99.90
16995;DHT22;8614;48.522;9.206;2022-10-28T06:07:10;12.10;99.90
16995;DHT22;8614;48.522;9.206;2022-10-28T06:09:37;12.10;99.90
16995;DHT22;8614;48.522;9.206;2022-10-28T06:12:06;12.10;99.90
16995;DHT22;8614;48.522;9.206;2022-10-28T06:14:33;12.10;99.90
16995;DHT22;8614;48.522;9.206;2022-10-28T06:17:00;12.10;99.90
16995;DHT22;8614;48.522;9.206;2022-10-28T06:19:27;12.10;99.90
16995;DHT22;8614;48.522;9.206;2022-10-28T06:21:54;12.20;99.90
16995;DHT22;8614;48.522;9.206;2022-10-28T06:24:21;12.20;99.90
16995;DHT22;8614;48.522;9.206;2022-10-28T06:26:48;12.20;99.90
16995;DHT22;8614;48.522;9.206;2022-10-28T06:29:16;12.20;99.90
16995;DHT22;8614;48.522;9.206;2022-10-28T06:31:43;12.20;99.90
16995;DHT22;8614;48.522;9.206;2022-10-28T06:34:11;12.20;99.90
16995;DHT22;8614;48.522;9.206;2022-10-28T06:36:38;12.30;99.90
16995;DHT22;8614;48.522;9.206;2022-10-28T06:39:05;12.30;99.90
16995;DHT22;8614;48.522;9.206;2022-10-28T06:41:33;12.30;99.90
16995;DHT22;8614;48.522;9.206;2022-10-28T06:44:00;12.40;99.90
16995;DHT22;8614;48.522;9.206;2022-10-28T06:46:28;12.40;99.90
16995;DHT22;8614;48.522;9.206;2022-10-28T06:48:55;12.40;99.90
16995;DHT22;8614;48.522;9.206;2022-10-28T06:51:23;12.50;99.90
16995;DHT22;8614;48.522;9.206;2022-10-28T06:53:50;12.50;99.90
16995;DHT22;8614;48.522;9.206;2022-10-28T06:56:18;12.50;99.90
16995;DHT22;8614;48.522;9.206;2022-10-28T06:58:48;12.60;99.90
16995;DHT22;8614;48.522;9.206;2022-10-28T07:01:16;12.60;99.90
16995;DHT22;8614;48.522;9.206;2022-10-28T07:03:44;12.70;99.90
16995;DHT22;8614;48.522;9.206;2022-10-28T07:06:11;12.70;99.90
16995;DHT22;8614;48.522;9.206;2022-10-28T07:08:38;12.80;99.90
16995;DHT22;8614;48.522;9.206;2022-10-28T07:11:05;12.90;99.90
16995;DHT22;8614;48.522;9.206;2022-10-28T07:13:32;12.90;99.90
16995;DHT22;8614;48.522;9.206;2022-10-28T07:16:00;13.00;99.90
16995;DHT22;8614;48.522;9.206;2022-10-28T07:18:28;13.10;99.90
16995;DHT22;8614;48.522;9.206;2022-10-28T07:20:58;13.10;99.90
16995;DHT22;8614;48.522;9.206;2022-10-28T07:23:25;13.30;99.90
16995;DHT22;8614;48.522;9.206;2022-10-28T07:25:53;13.30;99.90
16995;DHT22;8614;48.522;9.206;2022-10-28T07:28:20;13.40;99.90
16995;DHT22;8614;48.522;9.206;2022-10-28T07:30:47;13.60;99.90
16995;DHT22;8614;48.522;9.206;2022-10-28T07:33:14;13.60;99.90
16995;DHT22;8614;48.522;9.206;2022-10-28T07:35:41;13.70;99.90
16995;DHT22;8614;48.522;9.206;2022-10-28T07:38:10;13.70;99.90
16995;DHT22;8614;48.522;9.206;2022-10-28T07:40:37;13.70;99.90
16995;DHT22;8614;48.522;9.206;2022-10-28T07:43:04;13.80;99.90
16995;DHT22;8614;48.522;9.206;2022-10-28T07:45:31;13.80;99.90
16995;DHT22;8614;48.522;9.206;2022-10-28T07:47:59;13.90;99.90
16995;DHT22;8614;48.522;9.206;2022-10-28T07:50:26;13.90;99.90
16995;DHT22;8614;48.522;9.206;2022-10-28T07:52:53;14.10;99.90
16995;DHT22;8614;48.522;9.206;2022-10-28T07:55:21;14.10;99.90
16995;DHT22;8614;48.522;9.206;2022-10-28T07:57:48;14.20;99.90
16995;DHT22;8614;48.522;9.206;2022-10-28T08:00:15;14.30;99.90
16995;DHT22;8614;48.522;9.206;2022-10-28T08:02:42;14.40;99.90
16995;DHT22;8614;48.522;9.206;2022-10-28T08:05:09;14.50;99.90
16995;DHT22;8614;48.522;9.206;2022-10-28T08:07:36;14.60;99.90
16995;DHT22;8614;48.522;9.206;2022-10-28T08:10:03;14.70;99.90
16995;DHT22;8614;48.522;9.206;2022-10-28T08:12:32;14.80;99.90
16995;DHT22;8614;48.522;9.206;2022-10-28T08:14:58;14.90;99.90
16995;DHT22;8614;48.522;9.206;2022-10-28T08:17:27;15.00;99.90
16995;DHT22;8614;48.522;9.206;2022-10-28T08:19:54;15.00;99.90
16995;DHT22;8614;48.522;9.206;2022-10-28T08:22:21;15.10;99.90
16995;DHT22;8614;48.522;9.206;2022-10-28T08:24:48;15.10;99.90
16995;DHT22;8614;48.522;9.206;2022-10-28T08:27:15;15.20;99.90
16995;DHT22;8614;48.522;9.206;2022-10-28T08:29:43;15.30;99.90
16995;DHT22;8614;48.522;9.206;2022-10-28T08:32:10;15.30;99.90
16995;DHT22;8614;48.522;9.206;2022-10-28T08:34:37;15.50;99.90
16995;DHT22;8614;48.522;9.206;2022-10-28T08:37:03;15.60;99.90
16995;DHT22;8614;48.522;9.206;2022-10-28T08:39:30;15.70;99.90
16995;DHT22;8614;48.522;9.206;2022-10-28T08:42:05;15.80;99.90
16995;DHT22;8614;48.522;9.206;2022-10-28T08:44:55;15.90;99.90
16995;DHT22;8614;48.522;9.206;2022-10-28T08:47:34;16.10;99.90
16995;DHT22;8614;48.522;9.206;2022-10-28T08:50:09;16.20;99.90
16995;DHT22;8614;48.522;9.206;2022-10-28T08:52:42;16.40;99.90
16995;DHT22;8614;48.522;9.206;2022-10-28T08:55:14;16.50;99.90
16995;DHT22;8614;48.522;9.206;2022-10-28T08:57:45;16.60;99.90
16995;DHT22;8614;48.522;9.206;2022-10-28T09:00:21;16.80;99.90
16995;DHT22;8614;48.522;9.206;2022-10-28T09:02:54;16.90;99.90
16995;DHT22;8614;48.522;9.206;2022-10-28T09:05:24;17.00;99.90
16995;DHT22;8614;48.522;9.206;2022-10-28T09:07:51;17.20;99.90
16995;DHT22;8614;48.522;9.206;2022-10-28T09:10:31;17.30;99.90
16995;DHT22;8614;48.522;9.206;2022-10-28T09:13:06;17.30;99.90
16995;DHT22;8614;48.522;9.206;2022-10-28T09:15:43;17.50;99.90
16995;DHT22;8614;48.522;9.206;2022-10-28T09:18:17;17.60;99.90
16995;DHT22;8614;48.522;9.206;2022-10-28T09:20:51;17.70;99.90
16995;DHT22;8614;48.522;9.206;2022-10-28T09:23:21;17.80;99.90
16995;DHT22;8614;48.522;9.206;2022-10-28T09:26:03;18.00;99.90
16995;DHT22;8614;48.522;9.206;2022-10-28T09:28:45;18.00;99.90
16995;DHT22;8614;48.522;9.206;2022-10-28T09:31:21;18.10;99.90
16995;DHT22;8614;48.522;9.206;2022-10-28T09:33:59;18.10;99.90
16995;DHT22;8614;48.522;9.206;2022-10-28T09:36:29;18.10;99.90
16995;DHT22;8614;48.522;9.206;2022-10-28T09:39:00;18.00;99.90
16995;DHT22;8614;48.522;9.206;2022-10-28T09:41:30;18.10;99.90
16995;DHT22;8614;48.522;9.206;2022-10-28T09:44:05;18.10;99.90
16995;DHT22;8614;48.522;9.206;2022-10-28T09:46:34;18.00;99.90
16995;DHT22;8614;48.522;9.206;2022-10-28T09:49:04;18.00;99.90
16995;DHT22;8614;48.522;9.206;2022-10-28T09:51:34;17.90;99.90
16995;DHT22;8614;48.522;9.206;2022-10-28T09:54:09;17.90;99.90
16995;DHT22;8614;48.522;9.206;2022-10-28T09:56:37;17.80;99.90
16995;DHT22;8614;48.522;9.206;2022-10-28T09:59:05;17.70;99.90
16995;DHT22;8614;48.522;9.206;2022-10-28T10:01:35;17.70;99.90
16995;DHT22;8614;48.522;9.206;2022-10-28T10:04:14;17.70;99.90
16995;DHT22;8614;48.522;9.206;2022-10-28T10:06:45;17.70;99.90
16995;DHT22;8614;48.522;9.206;2022-10-28T10:09:18;17.80;99.90
16995;DHT22;8614;48.522;9.206;2022-10-28T10:11:47;17.90;99.90
16995;DHT22;8614;48.522;9.206;2022-10-28T10:14:18;18.00;99.90
16995;DHT22;8614;48.522;9.206;2022-10-28T10:16:51;18.10;99.90
16995;DHT22;8614;48.522;9.206;2022-10-28T10:19:19;18.20;99.90
16995;DHT22;8614;48.522;9.206;2022-10-28T10:21:47;18.30;99.90
16995;DHT22;8614;48.522;9.206;2022-10-28T10:24:27;18.50;99.90
16995;DHT22;8614;48.522;9.206;2022-10-28T10:26:55;18.70;99.90
16995;DHT22;8614;48.522;9.206;2022-10-28T10:29:23;19.00;99.90
16995;DHT22;8614;48.522;9.206;2022-10-28T10:32:06;19.10;99.90
16995;DHT22;8614;48.522;9.206;2022-10-28T10:34:33;19.30;99.90
16995;DHT22;8614;48.522;9.206;2022-10-28T10:37:02;19.50;99.90
16995;DHT22;8614;48.522;9.206;2022-10-28T10:39:33;19.70;99.90
16995;DHT22;8614;48.522;9.206;2022-10-28T10:42:00;19.80;99.90
16995;DHT22;8614;48.522;9.206;2022-10-28T10:44:31;19.90;99.90
16995;DHT22;8614;48.522;9.206;2022-10-28T10:47:19;19.90;99.90
16995;DHT22;8614;48.522;9.206;2022-10-28T10:49:47;20.00;99.90
16995;DHT22;8614;48.522;9.206;2022-10-28T10:52:19;20.20;99.90
16995;DHT22;8614;48.522;9.206;2022-10-28T10:54:58;20.20;99.90
16995;DHT22;8614;48.522;9.206;2022-10-28T10:57:27;20.40;99.90
16995;DHT22;8614;48.522;9.206;2022-10-28T10:59:55;20.60;99.90
16995;DHT22;8614;48.522;9.206;2022-10-28T11:02:26;20.70;99.90
16995;DHT22;8614;48.522;9.206;2022-10-28T11:04:56;20.80;99.90
16995;DHT22;8614;48.522;9.206;2022-10-28T11:07:25;20.80;99.90
16995;DHT22;8614;48.522;9.206;2022-10-28T11:09:53;20.80;99.90
16995;DHT22;8614;48.522;9.206;2022-10-28T11:12:26;20.70;99.90
16995;DHT22;8614;48.522;9.206;2022-10-28T11:14:55;20.70;99.90
16995;DHT22;8614;48.522;9.206;2022-10-28T11:17:26;20.60;99.90
16995;DHT22;8614;48.522;9.206;2022-10-28T11:19:55;20.60;99.90
16995;DHT22;8614;48.522;9.206;2022-10-28T11:22:31;20.50;99.90
16995;DHT22;8614;48.522;9.206;2022-10-28T11:25:33;20.50;99.90
16995;DHT22;8614;48.522;9.206;2022-10-28T11:31:14;20.40;99.90
16995;DHT22;8614;48.522;9.206;2022-10-28T11:33:51;20.40;99.90
16995;DHT22;8614;48.522;9.206;2022-10-28T11:36:24;20.40;99.90
16995;DHT22;8614;48.522;9.206;2022-10-28T11:39:06;20.50;99.90
16995;DHT22;8614;48.522;9.206;2022-10-28T11:41:45;20.50;99.90
16995;DHT22;8614;48.522;9.206;2022-10-28T11:44:27;20.60;99.90
16995;DHT22;8614;48.522;9.206;2022-10-28T11:47:03;20.70;99.90
16995;DHT22;8614;48.522;9.206;2022-10-28T11:52:41;20.90;99.90
16995;DHT22;8614;48.522;9.206;2022-10-28T11:55:20;21.00;99.90
16995;DHT22;8614;48.522;9.206;2022-10-28T11:57:56;21.00;99.90
16995;DHT22;8614;48.522;9.206;2022-10-28T12:00:48;21.00;99.90
16995;DHT22;8614;48.522;9.206;2022-10-28T12:03:34;20.90;99.90
16995;DHT22;8614;48.522;9.206;2022-10-28T12:06:11;20.90;99.90
16995;DHT22;8614;48.522;9.206;2022-10-28T12:08:52;20.90;99.90
16995;DHT22;8614;48.522;9.206;2022-10-28T12:11:34;20.80;99.90
16995;DHT22;8614;48.522;9.206;2022-10-28T12:14:11;20.80;99.90
16995;DHT22;8614;48.522;9.206;2022-10-28T12:16:47;20.80;99.90
16995;DHT22;8614;48.522;9.206;2022-10-28T12:19:17;20.80;99.90
16995;DHT22;8614;48.522;9.206;2022-10-28T12:21:57;20.70;99.90
16995;DHT22;8614;48.522;9.206;2022-10-28T12:24:28;20.70;99.90
16995;DHT22;8614;48.522;9.206;2022-10-28T12:26:59;20.70;99.90
16995;DHT22;8614;48.522;9.206;2022-10-28T12:29:32;20.70;99.90
16995;DHT22;8614;48.522;9.206;2022-10-28T12:32:04;20.70;99.90
16995;DHT22;8614;48.522;9.206;2022-10-28T12:34:36;20.60;99.90
16995;DHT22;8614;48.522;9.206;2022-10-28T12:37:09;20.50;99.90
16995;DHT22;8614;48.522;9.206;2022-10-28T12:39:39;20.60;99.90
16995;DHT22;8614;48.522;9.206;2022-10-28T12:42:13;20.80;99.90
16995;DHT22;8614;48.522;9.206;2022-10-28T12:44:41;20.80;99.90
16995;DHT22;8614;48.522;9.206;2022-10-28T12:47:17;20.90;99.90
16995;DHT22;8614;48.522;9.206;2022-10-28T12:49:56;21.00;99.90
16995;DHT22;8614;48.522;9.206;2022-10-28T12:52:38;21.00;99.90
16995;DHT22;8614;48.522;9.206;2022-10-28T12:55:20;21.00;99.90
16995;DHT22;8614;48.522;9.206;2022-10-28T12:57:55;21.00;99.90
16995;DHT22;8614;48.522;9.206;2022-10-28T13:00:26;21.00;99.90
16995;DHT22;8614;48.522;9.206;2022-10-28T13:03:00;21.00;99.90
16995;DHT22;8614;48.522;9.206;2022-10-28T13:05:45;21.00;99.90
16995;DHT22;8614;48.522;9.206;2022-10-28T13:08:41;21.00;99.90
16995;DHT22;8614;48.522;9.206;2022-10-28T13:14:23;21.20;99.90
16995;DHT22;8614;48.522;9.206;2022-10-28T13:17:14;21.20;99.90
16995;DHT22;8614;48.522;9.206;2022-10-28T13:19:54;21.30;99.90
16995;DHT22;8614;48.522;9.206;2022-10-28T13:22:33;21.30;99.90
16995;DHT22;8614;48.522;9.206;2022-10-28T13:25:20;21.30;99.90
16995;DHT22;8614;48.522;9.206;2022-10-28T13:27:54;21.40;99.90
16995;DHT22;8614;48.522;9.206;2022-10-28T13:30:22;21.50;99.90
16995;DHT22;8614;48.522;9.206;2022-10-28T13:33:02;21.50;99.90
16995;DHT22;8614;48.522;9.206;2022-10-28T13:35:31;21.60;99.90
16995;DHT22;8614;48.522;9.206;2022-10-28T13:37:59;21.60;99.90
16995;DHT22;8614;48.522;9.206;2022-10-28T13:44:20;21.60;99.90
16995;DHT22;8614;48.522;9.206;2022-10-28T13:47:25;21.50;99.90
16995;DHT22;8614;48.522;9.206;2022-10-28T13:50:32;21.60;99.90
16995;DHT22;8614;48.522;9.206;2022-10-28T13:56:19;21.70;99.90
16995;DHT22;8614;48.522;9.206;2022-10-28T13:58:50;21.70;99.90
16995;DHT22;8614;48.522;9.206;2022-10-28T14:01:46;21.70;99.90
16995;DHT22;8614;48.522;9.206;2022-10-28T14:04:22;21.70;99.90
16995;DHT22;8614;48.522;9.206;2022-10-28T14:06:52;21.80;99.90
16995;DHT22;8614;48.522;9.206;2022-10-28T14:09:28;21.90;99.90
16995;DHT22;8614;48.522;9.206;2022-10-28T14:12:17;21.90;99.90
16995;DHT22;8614;48.522;9.206;2022-10-28T14:14:58;22.00;99.90
16995;DHT22;8614;48.522;9.206;2022-10-28T14:17:32;22.20;99.90
16995;DHT22;8614;48.522;9.206;2022-10-28T14:20:01;22.30;99.90
16995;DHT22;8614;48.522;9.206;2022-10-28T14:22:31;22.40;99.90
16995;DHT22;8614;48.522;9.206;2022-10-28T14:24:58;22.40;99.90
16995;DHT22;8614;48.522;9.206;2022-10-28T14:27:38;22.40;99.90
16995;DHT22;8614;48.522;9.206;2022-10-28T14:30:17;22.30;99.90
16995;DHT22;8614;48.522;9.206;2022-10-28T14:33:18;22.20;99.90
16995;DHT22;8614;48.522;9.206;2022-10-28T14:35:49;22.20;99.90
16995;DHT22;8614;48.522;9.206;2022-10-28T14:38:39;22.10;99.90
16995;DHT22;8614;48.522;9.206;2022-10-28T14:41:24;22.10;99.90
16995;DHT22;8614;48.522;9.206;2022-10-28T14:43:59;22.00;99.90
16995;DHT22;8614;48.522;9.206;2022-10-28T14:46:43;22.00;99.90
16995;DHT22;8614;48.522;9.206;2022-10-28T14:49:17;21.90;99.90
16995;DHT22;8614;48.522;9.206;2022-10-28T14:51:45;21.90;99.90
16995;DHT22;8614;48.522;9.206;2022-10-28T14:54:16;21.80;99.90
16995;DHT22;8614;48.522;9.206;2022-10-28T14:56:45;21.80;99.90
16995;DHT22;8614;48.522;9.206;2022-10-28T14:59:23;21.70;99.90
16995;DHT22;8614;48.522;9.206;2022-10-28T15:02:00;21.70;99.90
16995;DHT22;8614;48.522;9.206;2022-10-28T15:04:30;21.70;99.90
16995;DHT22;8614;48.522;9.206;2022-10-28T15:06:58;21.60;99.90
16995;DHT22;8614;48.522;9.206;2022-10-28T15:09:27;21.60;99.90
16995;DHT22;8614;48.522;9.206;2022-10-28T15:11:55;21.50;99.90
16995;DHT22;8614;48.522;9.206;2022-10-28T15:14:27;21.40;99.90
16995;DHT22;8614;48.522;9.206;2022-10-28T15:16:54;21.40;99.90
16995;DHT22;8614;48.522;9.206;2022-10-28T15:19:24;21.30;99.90
16995;DHT22;8614;48.522;9.206;2022-10-28T15:22:04;21.20;99.90
16995;DHT22;8614;48.522;9.206;2022-10-28T15:24:32;21.10;99.90
16995;DHT22;8614;48.522;9.206;2022-10-28T15:26:59;21.00;99.90
16995;DHT22;8614;48.522;9.206;2022-10-28T15:29:26;20.90;99.90
16995;DHT22;8614;48.522;9.206;2022-10-28T15:32:05;20.80;99.90
16995;DHT22;8614;48.522;9.206;2022-10-28T15:34:35;20.70;99.90
16995;DHT22;8614;48.522;9.206;2022-10-28T15:37:03;20.60;99.90
16995;DHT22;8614;48.522;9.206;2022-10-28T15:39:30;20.50;99.90
16995;DHT22;8614;48.522;9.206;2022-10-28T15:41:58;20.40;99.90
16995;DHT22;8614;48.522;9.206;2022-10-28T15:44:34;20.30;99.90
16995;DHT22;8614;48.522;9.206;2022-10-28T15:47:18;20.20;99.90
16995;DHT22;8614;48.522;9.206;2022-10-28T15:52:41;20.00;99.90
16995;DHT22;8614;48.522;9.206;2022-10-28T15:55:24;19.90;99.90
16995;DHT22;8614;48.522;9.206;2022-10-28T15:57:53;19.80;99.90
16995;DHT22;8614;48.522;9.206;2022-10-28T16:00:22;19.70;99.90
16995;DHT22;8614;48.522;9.206;2022-10-28T16:02:52;19.60;99.90
16995;DHT22;8614;48.522;9.206;2022-10-28T16:05:56;19.50;99.90
16995;DHT22;8614;48.522;9.206;2022-10-28T16:08:29;19.40;99.90
16995;DHT22;8614;48.522;9.206;2022-10-28T16:11:01;19.30;99.90
16995;DHT22;8614;48.522;9.206;2022-10-28T16:13:32;19.20;99.90
16995;DHT22;8614;48.522;9.206;2022-10-28T16:16:03;19.10;99.90
16995;DHT22;8614;48.522;9.206;2022-10-28T16:18:39;18.90;99.90
16995;DHT22;8614;48.522;9.206;2022-10-28T16:21:06;18.80;99.90
16995;DHT22;8614;48.522;9.206;2022-10-28T16:23:38;18.70;99.90
16995;DHT22;8614;48.522;9.206;2022-10-28T16:26:08;18.60;99.90
16995;DHT22;8614;48.522;9.206;2022-10-28T16:28:36;18.60;99.90
16995;DHT22;8614;48.522;9.206;2022-10-28T16:31:04;18.50;99.90
16995;DHT22;8614;48.522;9.206;2022-10-28T16:33:32;18.40;99.90
16995;DHT22;8614;48.522;9.206;2022-10-28T16:36:00;18.30;99.90
16995;DHT22;8614;48.522;9.206;2022-10-28T16:38:29;18.20;99.90